Time;durP1;ratioP1;P1;durP2;ratioP2;P2;SDS_P1;SDS_P2;PMS_P1;PMS_P2;Temp;Humidity;BMP_temperature;BMP_pressure;BME280_temperature;BME280_humidity;BME280_pressure;Samples;Min_cycle;Max_cycle;Signal;HPM_P1;HPM_P2
2024/03/06 00:00:34;;;;;;;3.50;3.10;;;21.60;57.90;;;;;;5059699;28;20037;-37
2024/03/06 00:03:00;;;;;;;3.00;2.67;;;21.60;58.10;;;;;;5063656;28;20737;-37
2024/03/06 00:05:26;;;;;;;3.20;2.55;;;21.60;58.10;;;;;;5058993;28;20024;-36
2024/03/06 00:07:52;;;;;;;4.05;2.78;;;21.70;58.10;;;;;;5051829;28;20065;-36
2024/03/06 00:10:18;;;;;;;3.10;2.80;;;21.70;58.00;;;;;;5043137;28;20402;-36
2024/03/06 00:12:44;;;;;;;3.08;2.45;;;21.70;58.00;;;;;;5043086;28;20033;-36
2024/03/06 00:15:10;;;;;;;3.03;2.78;;;21.70;58.10;;;;;;5043030;28;20051;-37
2024/03/06 00:17:36;;;;;;;3.05;2.58;;;21.70;58.10;;;;;;5042096;28;20037;-36
2024/03/06 00:20:05;;;;;;;3.10;2.80;;;21.70;58.20;;;;;;5045757;28;20018;-36
2024/03/06 00:22:31;;;;;;;3.00;2.70;;;21.70;58.10;;;;;;5045101;28;20090;-36
2024/03/06 00:24:57;;;;;;;3.70;2.80;;;21.60;58.10;;;;;;5045349;28;20029;-37
2024/03/06 00:27:23;;;;;;;2.90;2.60;;;21.60;58.10;;;;;;5032662;28;20293;-36
2024/03/06 00:29:50;;;;;;;3.20;2.90;;;21.60;58.00;;;;;;5049846;28;20036;-35
2024/03/06 00:32:16;;;;;;;3.22;2.92;;;21.60;58.10;;;;;;5051207;28;20029;-36
2024/03/06 00:34:42;;;;;;;3.27;2.53;;;21.60;58.00;;;;;;5046235;28;20033;-36
2024/03/06 00:37:08;;;;;;;3.40;2.40;;;21.60;58.10;;;;;;5052151;28;20029;-36
2024/03/06 00:39:35;;;;;;;2.42;2.20;;;21.60;58.30;;;;;;5055129;28;20041;-36
2024/03/06 00:42:01;;;;;;;2.40;2.20;;;21.70;58.20;;;;;;5033660;28;20033;-35
2024/03/06 00:44:27;;;;;;;3.80;2.42;;;21.70;58.00;;;;;;5032947;28;20029;-40
2024/03/06 00:46:53;;;;;;;2.92;2.58;;;21.70;58.10;;;;;;5062128;28;20055;-36
2024/03/06 00:49:19;;;;;;;2.60;2.40;;;21.70;58.20;;;;;;5052989;28;20074;-34
2024/03/06 00:51:45;;;;;;;2.50;2.25;;;21.70;58.30;;;;;;5057893;28;20029;-36
2024/03/06 00:54:12;;;;;;;2.78;2.58;;;21.70;58.20;;;;;;5056516;28;20112;-34
2024/03/06 00:56:40;;;;;;;3.00;2.17;;;21.60;58.10;;;;;;5050613;28;20033;-35
2024/03/06 00:59:06;;;;;;;4.13;2.63;;;21.60;58.10;;;;;;5048316;28;20041;-35
2024/03/06 01:01:33;;;;;;;2.40;2.20;;;21.60;58.10;;;;;;5046741;28;20107;-35
2024/03/06 01:03:59;;;;;;;2.45;2.25;;;21.60;58.10;;;;;;5044566;28;20056;-35
2024/03/06 01:06:25;;;;;;;3.78;2.25;;;21.60;58.20;;;;;;5046185;28;20044;-35
2024/03/06 01:08:51;;;;;;;2.97;2.20;;;21.60;58.30;;;;;;5063522;28;20053;-35
2024/03/06 01:11:17;;;;;;;2.40;2.20;;;21.70;58.10;;;;;;5066298;28;20032;-36
2024/03/06 01:13:43;;;;;;;2.20;2.00;;;21.70;58.10;;;;;;5064753;28;21711;-36
2024/03/06 01:16:09;;;;;;;2.45;2.22;;;21.70;58.20;;;;;;5062229;28;20052;-36
2024/03/06 01:18:36;;;;;;;3.30;2.30;;;21.70;58.20;;;;;;5062838;28;20638;-36
2024/03/06 01:21:03;;;;;;;1.90;1.80;;;21.70;58.30;;;;;;5047015;28;20029;-35
2024/03/06 01:23:29;;;;;;;2.25;2.05;;;21.60;58.20;;;;;;5067984;28;20227;-36
2024/03/06 01:25:55;;;;;;;2.50;1.98;;;21.60;58.20;;;;;;5076669;28;20033;-35
2024/03/06 01:28:21;;;;;;;2.33;2.05;;;21.60;58.20;;;;;;5083066;28;20039;-36
2024/03/06 01:30:48;;;;;;;2.15;1.95;;;21.60;58.20;;;;;;5078612;28;20429;-36
2024/03/06 01:33:14;;;;;;;2.47;1.98;;;21.60;58.20;;;;;;5078689;28;20081;-36
2024/03/06 01:35:40;;;;;;;2.22;2.03;;;21.60;58.40;;;;;;5078857;28;20025;-35
2024/03/06 01:38:06;;;;;;;2.13;1.92;;;21.60;58.40;;;;;;5078584;28;20036;-36
2024/03/06 01:40:32;;;;;;;2.17;1.83;;;21.70;58.30;;;;;;5079920;28;20029;-41
2024/03/06 01:42:58;;;;;;;2.35;2.10;;;21.70;58.20;;;;;;5075784;28;20025;-36
2024/03/06 01:45:24;;;;;;;1.90;1.80;;;21.70;58.40;;;;;;5081908;28;20035;-35
2024/03/06 01:47:51;;;;;;;2.20;2.00;;;21.70;58.40;;;;;;5080316;28;20203;-36
2024/03/06 01:50:17;;;;;;;2.17;1.98;;;21.70;58.40;;;;;;5081744;28;20028;-37
2024/03/06 01:52:43;;;;;;;2.03;1.75;;;21.60;58.20;;;;;;5081339;28;20056;-36
2024/03/06 01:55:10;;;;;;;2.33;2.13;;;21.60;58.50;;;;;;5061309;28;20553;-35
2024/03/06 01:57:36;;;;;;;2.20;2.00;;;21.60;58.30;;;;;;5083153;28;20094;-36
2024/03/06 02:00:04;;;;;;;3.72;2.20;;;21.60;58.20;;;;;;5047733;28;20025;-36
2024/03/06 02:02:30;;;;;;;3.13;2.20;;;21.60;58.30;;;;;;5076564;28;20033;-35
2024/03/06 02:04:58;;;;;;;3.38;1.85;;;21.60;58.40;;;;;;5074198;28;20036;-35
2024/03/06 02:07:24;;;;;;;4.32;2.10;;;21.60;58.30;;;;;;5051997;28;20045;-35
2024/03/06 02:09:50;;;;;;;2.35;1.90;;;21.60;58.50;;;;;;5037996;28;20024;-34
2024/03/06 02:12:17;;;;;;;2.10;1.90;;;21.60;58.50;;;;;;5078228;28;20098;-35
2024/03/06 02:14:43;;;;;;;2.03;1.83;;;21.70;58.70;;;;;;5081973;28;20039;-34
2024/03/06 02:17:10;;;;;;;2.10;1.90;;;21.70;58.40;;;;;;5080292;28;20043;-34
2024/03/06 02:19:40;;;;;;;2.40;2.20;;;21.70;58.40;;;;;;5079717;28;20441;-34
2024/03/06 02:22:07;;;;;;;2.28;1.90;;;21.70;58.40;;;;;;5075823;28;20043;-34
2024/03/06 02:24:34;;;;;;;4.32;2.15;;;21.70;58.40;;;;;;5081650;28;20131;-35
2024/03/06 02:27:00;;;;;;;2.00;1.90;;;21.70;58.40;;;;;;5076973;28;20064;-35
2024/03/06 02:29:26;;;;;;;2.40;1.88;;;21.70;58.40;;;;;;5076186;28;20062;-35
2024/03/06 02:31:52;;;;;;;1.98;1.77;;;21.70;58.30;;;;;;5081888;28;20082;-35
2024/03/06 02:34:19;;;;;;;3.92;1.90;;;21.70;58.40;;;;;;5075964;28;20033;-35
2024/03/06 02:36:45;;;;;;;2.17;1.97;;;21.60;58.30;;;;;;5081156;28;20024;-35
2024/03/06 02:39:11;;;;;;;2.10;1.90;;;21.70;58.40;;;;;;5081462;28;20043;-35
2024/03/06 02:41:37;;;;;;;1.90;1.80;;;21.60;58.40;;;;;;5079549;28;20060;-35
2024/03/06 02:44:03;;;;;;;1.88;1.70;;;21.70;58.30;;;;;;5081151;28;20032;-35
2024/03/06 02:46:29;;;;;;;2.23;1.90;;;21.60;58.80;;;;;;5082102;28;20040;-35
2024/03/06 02:48:56;;;;;;;2.30;2.10;;;21.60;58.20;;;;;;5079354;28;20289;-35
2024/03/06 02:51:22;;;;;;;2.30;2.05;;;21.60;58.20;;;;;;5078988;28;20028;-35
2024/03/06 02:53:49;;;;;;;2.10;1.90;;;21.60;58.20;;;;;;5081535;28;20054;-36
2024/03/06 02:56:21;;;;;;;2.22;2.03;;;21.60;58.20;;;;;;5082283;28;20017;-35
2024/03/06 02:58:47;;;;;;;1.83;1.73;;;21.60;58.20;;;;;;5078411;28;20047;-35
2024/03/06 03:01:16;;;;;;;2.10;1.90;;;21.60;58.20;;;;;;5082402;28;20028;-36
2024/03/06 03:03:44;;;;;;;1.80;1.70;;;21.60;58.10;;;;;;5081398;28;20550;-35
2024/03/06 03:06:10;;;;;;;2.03;1.83;;;21.60;58.30;;;;;;5082461;28;20046;-37
2024/03/06 03:08:37;;;;;;;2.70;2.17;;;21.60;58.10;;;;;;5080109;28;20453;-36
2024/03/06 03:11:04;;;;;;;2.17;1.98;;;21.60;58.00;;;;;;5064091;28;20062;-35
2024/03/06 03:13:33;;;;;;;1.80;1.70;;;21.60;58.10;;;;;;5075611;28;20036;-36
2024/03/06 03:16:00;;;;;;;1.90;1.80;;;21.60;57.90;;;;;;5074713;28;20076;-35
2024/03/06 03:18:26;;;;;;;2.20;2.00;;;21.60;57.90;;;;;;5081890;28;20032;-36
2024/03/06 03:20:52;;;;;;;2.58;2.20;;;21.60;57.90;;;;;;5081113;28;20043;-35
2024/03/06 03:23:21;;;;;;;2.25;1.95;;;21.50;57.90;;;;;;5081597;28;20036;-36
2024/03/06 03:25:48;;;;;;;1.83;1.70;;;21.50;57.90;;;;;;5081483;28;20485;-36
2024/03/06 03:28:15;;;;;;;2.88;1.70;;;21.50;57.80;;;;;;5079128;28;20062;-35
2024/03/06 03:30:46;;;;;;;1.70;1.60;;;21.50;57.90;;;;;;5078133;28;20059;-36
2024/03/06 03:33:12;;;;;;;1.75;1.58;;;21.50;58.00;;;;;;5081484;28;20523;-35
2024/03/06 03:35:38;;;;;;;1.70;1.60;;;21.50;58.20;;;;;;5073839;28;20031;-34
2024/03/06 03:38:04;;;;;;;1.77;1.67;;;21.60;58.30;;;;;;5078637;28;20052;-34
2024/03/06 03:40:32;;;;;;;1.88;1.70;;;21.60;58.00;;;;;;5072737;28;20071;-35
2024/03/06 03:42:58;;;;;;;1.83;1.70;;;21.60;58.00;;;;;;5081242;28;20059;-41
2024/03/06 03:45:25;;;;;;;2.17;1.60;;;21.60;58.10;;;;;;5075812;28;20025;-35
2024/03/06 03:47:51;;;;;;;2.38;1.70;;;21.60;58.10;;;;;;5081169;28;20040;-36
2024/03/06 03:50:17;;;;;;;1.48;1.38;;;21.50;58.10;;;;;;5081421;28;20036;-36
2024/03/06 03:52:43;;;;;;;2.10;1.60;;;21.50;58.10;;;;;;5081265;28;20043;-36
2024/03/06 03:55:09;;;;;;;2.35;1.77;;;21.50;58.10;;;;;;5080223;28;20556;-36
2024/03/06 03:57:36;;;;;;;2.60;1.88;;;21.50;58.10;;;;;;5079447;28;20040;-36
2024/03/06 04:00:02;;;;;;;2.50;1.60;;;21.50;58.10;;;;;;5081788;28;20025;-35
2024/03/06 04:02:28;;;;;;;1.73;1.60;;;21.50;58.10;;;;;;5080527;28;20041;-36
2024/03/06 04:04:54;;;;;;;2.20;1.42;;;21.50;58.20;;;;;;5081142;28;20036;-36
2024/03/06 04:07:21;;;;;;;1.42;1.33;;;21.50;58.30;;;;;;5066691;28;20047;-36
2024/03/06 04:09:47;;;;;;;1.55;1.30;;;21.50;58.40;;;;;;5060686;28;20043;-36
2024/03/06 04:12:13;;;;;;;1.60;1.50;;;21.60;58.20;;;;;;5058297;28;20406;-36
2024/03/06 04:14:39;;;;;;;1.65;1.45;;;21.50;58.30;;;;;;5059578;28;20056;-36
2024/03/06 04:17:05;;;;;;;1.73;1.58;;;21.50;58.20;;;;;;5061288;28;20036;-36
2024/03/06 04:19:32;;;;;;;1.85;1.40;;;21.50;58.30;;;;;;5060740;28;20029;-36
2024/03/06 04:21:59;;;;;;;1.42;1.33;;;21.50;58.20;;;;;;5061490;28;20056;-35
2024/03/06 04:24:25;;;;;;;2.80;1.57;;;21.50;58.20;;;;;;5060698;28;20033;-36
2024/03/06 04:26:51;;;;;;;1.33;1.23;;;21.50;58.30;;;;;;5059347;28;20304;-35
2024/03/06 04:29:17;;;;;;;1.40;1.30;;;21.50;58.40;;;;;;5051470;28;20510;-36
2024/03/06 04:31:43;;;;;;;1.30;1.20;;;21.50;58.40;;;;;;5055230;28;20029;-35
2024/03/06 04:34:09;;;;;;;1.40;1.27;;;21.60;58.30;;;;;;5050637;28;20745;-35
2024/03/06 04:36:35;;;;;;;1.38;1.25;;;21.60;58.30;;;;;;5058597;28;20040;-35
2024/03/06 04:39:07;;;;;;;1.25;1.15;;;21.60;58.40;;;;;;5061007;28;20036;-35
2024/03/06 04:41:33;;;;;;;2.17;1.33;;;21.60;58.40;;;;;;5060688;28;20128;-35
2024/03/06 04:44:00;;;;;;;1.50;1.40;;;21.50;58.40;;;;;;5060600;28;20053;-35
2024/03/06 04:46:27;;;;;;;2.03;1.27;;;21.50;58.30;;;;;;5060179;28;20060;-35
2024/03/06 04:48:53;;;;;;;1.48;1.38;;;21.50;58.40;;;;;;5060046;28;20067;-35
2024/03/06 04:51:19;;;;;;;1.30;1.20;;;21.50;58.40;;;;;;5059374;28;20029;-35
2024/03/06 04:53:46;;;;;;;1.17;1.08;;;21.50;58.40;;;;;;5062684;28;20040;-43
2024/03/06 04:56:12;;;;;;;1.20;1.10;;;21.50;58.50;;;;;;5055725;28;20029;-35
2024/03/06 04:58:38;;;;;;;1.25;1.15;;;21.60;58.50;;;;;;5061005;28;20060;-35
2024/03/06 05:01:04;;;;;;;1.58;1.35;;;21.60;58.40;;;;;;5064474;28;20037;-35
2024/03/06 05:03:31;;;;;;;1.23;1.13;;;21.60;58.50;;;;;;5063885;28;20073;-35
2024/03/06 05:05:57;;;;;;;1.02;1.00;;;21.60;58.60;;;;;;5056658;28;20028;-36
2024/03/06 05:08:23;;;;;;;2.42;1.45;;;21.60;58.50;;;;;;5080210;28;20060;-36
2024/03/06 05:10:49;;;;;;;2.97;1.20;;;21.50;58.50;;;;;;5084281;28;20036;-36
2024/03/06 05:13:15;;;;;;;1.40;1.20;;;21.60;58.50;;;;;;5071845;28;20028;-36
2024/03/06 05:15:42;;;;;;;1.60;1.33;;;21.50;58.40;;;;;;5061661;28;20097;-36
2024/03/06 05:18:09;;;;;;;1.30;0.98;;;21.50;58.50;;;;;;5065971;28;20029;-36
2024/03/06 05:20:35;;;;;;;0.90;0.90;;;21.50;58.50;;;;;;5064538;28;20037;-36
2024/03/06 05:23:02;;;;;;;0.95;0.90;;;21.60;58.70;;;;;;5066146;28;20099;-36
2024/03/06 05:25:28;;;;;;;1.13;1.02;;;21.60;59.10;;;;;;5064363;28;20041;-35
2024/03/06 05:27:54;;;;;;;1.10;1.00;;;21.60;58.50;;;;;;5068646;28;20044;-35
2024/03/06 05:30:20;;;;;;;1.20;1.10;;;21.60;58.60;;;;;;5061987;28;20036;-35
2024/03/06 05:32:47;;;;;;;1.02;0.90;;;21.60;58.70;;;;;;5065462;28;20033;-35
2024/03/06 05:35:13;;;;;;;1.30;1.20;;;21.60;58.70;;;;;;5067691;28;20032;-37
2024/03/06 05:37:39;;;;;;;1.10;1.00;;;21.60;58.70;;;;;;5065421;28;20031;-35
2024/03/06 05:40:06;;;;;;;1.42;1.02;;;21.50;58.60;;;;;;5068915;28;20029;-35
2024/03/06 05:42:32;;;;;;;1.40;0.98;;;21.50;58.50;;;;;;5067621;28;20086;-36
2024/03/06 05:45:04;;;;;;;0.80;0.80;;;21.50;58.50;;;;;;5083681;28;20040;-35
2024/03/06 05:47:32;;;;;;;0.85;0.80;;;21.50;58.80;;;;;;5077733;28;20045;-35
2024/03/06 05:49:59;;;;;;;0.80;0.80;;;21.60;58.80;;;;;;5076672;28;20173;-35
2024/03/06 05:52:25;;;;;;;0.68;0.68;;;21.60;58.70;;;;;;5083544;28;20043;-36
2024/03/06 05:54:51;;;;;;;0.90;0.90;;;21.60;58.70;;;;;;5083464;28;20132;-36
2024/03/06 05:57:17;;;;;;;1.00;0.82;;;21.60;58.70;;;;;;5083951;28;20461;-35
2024/03/06 05:59:44;;;;;;;1.20;1.00;;;21.60;58.80;;;;;;5082874;28;20035;-37
2024/03/06 06:02:10;;;;;;;1.00;0.73;;;21.60;58.80;;;;;;5081907;28;20087;-36
2024/03/06 06:04:36;;;;;;;0.80;0.80;;;21.60;58.70;;;;;;5082823;28;20133;-35
2024/03/06 06:07:03;;;;;;;1.60;1.00;;;21.60;58.70;;;;;;5073097;28;20045;-35
2024/03/06 06:09:29;;;;;;;0.80;0.80;;;21.50;58.70;;;;;;5062926;28;20036;-36
2024/03/06 06:11:55;;;;;;;0.90;0.80;;;21.50;58.70;;;;;;5063381;28;20083;-38
2024/03/06 06:14:21;;;;;;;0.88;0.80;;;21.60;58.80;;;;;;5041867;28;20035;-35
2024/03/06 06:16:48;;;;;;;0.77;0.70;;;21.60;58.70;;;;;;5047328;28;20492;-36
2024/03/06 06:19:14;;;;;;;0.70;0.70;;;21.60;58.60;;;;;;5049825;28;20148;-43
2024/03/06 06:21:40;;;;;;;1.02;0.80;;;21.60;59.30;;;;;;5046790;28;20025;-36
2024/03/06 06:24:07;;;;;;;2.15;0.95;;;21.60;58.80;;;;;;5047069;28;20037;-36
2024/03/06 06:26:33;;;;;;;0.80;0.73;;;21.60;58.80;;;;;;5046784;28;20113;-36
2024/03/06 06:28:59;;;;;;;0.80;0.80;;;21.60;58.80;;;;;;5043566;28;20058;-36
2024/03/06 06:31:26;;;;;;;1.23;0.88;;;21.60;58.80;;;;;;5048124;28;20067;-36
2024/03/06 06:33:53;;;;;;;0.80;0.80;;;21.60;58.80;;;;;;5049859;28;20029;-36
2024/03/06 06:36:19;;;;;;;0.40;0.40;;;21.50;58.70;;;;;;5042105;28;20025;-36
2024/03/06 06:38:47;;;;;;;0.80;0.60;;;21.50;58.80;;;;;;5048432;28;20542;-36
2024/03/06 06:41:14;;;;;;;0.82;0.60;;;21.60;58.90;;;;;;5042322;28;20051;-36
2024/03/06 06:43:41;;;;;;;;;;;21.60;58.80;;;;;;5048823;28;20088;-36
2024/03/06 06:46:08;;;;;;;0.80;0.70;;;21.60;58.80;;;;;;5050286;28;19917;-36
2024/03/06 06:48:34;;;;;;;0.50;0.50;;;21.60;58.80;;;;;;5049739;28;20048;-36
2024/03/06 06:51:04;;;;;;;1.00;0.70;;;21.60;58.90;;;;;;5050998;28;20044;-36
2024/03/06 06:53:30;;;;;;;0.90;0.50;;;21.60;58.90;;;;;;5051495;28;20057;-36
2024/03/06 06:55:57;;;;;;;0.77;0.60;;;21.60;58.90;;;;;;5046459;28;20057;-36
2024/03/06 06:58:23;;;;;;;1.40;0.70;;;21.60;58.90;;;;;;5045230;28;20049;-36
2024/03/06 07:00:49;;;;;;;0.70;0.52;;;21.60;58.80;;;;;;5049517;28;20029;-36
2024/03/06 07:03:16;;;;;;;0.40;0.40;;;21.50;58.80;;;;;;5050427;28;20033;-35
2024/03/06 07:05:42;;;;;;;0.40;0.40;;;21.50;58.90;;;;;;5047163;28;20025;-36
2024/03/06 07:08:08;;;;;;;0.43;0.43;;;21.60;59.00;;;;;;5048098;28;20063;-38
2024/03/06 07:10:37;;;;;;;0.85;0.50;;;21.60;58.80;;;;;;5046365;28;20067;-36
2024/03/06 07:13:04;;;;;;;0.60;0.50;;;21.60;58.80;;;;;;5051638;28;20129;-36
2024/03/06 07:15:32;;;;;;;2.30;0.43;;;21.60;58.90;;;;;;5051021;28;20041;-37
2024/03/06 07:17:59;;;;;;;3.63;0.70;;;21.60;59.00;;;;;;5050288;28;20029;-36
2024/03/06 07:20:25;;;;;;;0.50;0.40;;;21.60;59.10;;;;;;5052164;28;20029;-36
2024/03/06 07:22:51;;;;;;;1.48;0.57;;;21.60;59.00;;;;;;5050488;28;20094;-36
2024/03/06 07:25:17;;;;;;;2.42;0.50;;;21.60;59.20;;;;;;5047800;28;20030;-36
2024/03/06 07:27:43;;;;;;;1.52;0.50;;;21.60;59.10;;;;;;5049562;28;20045;-36
2024/03/06 07:30:10;;;;;;;1.38;0.60;;;21.60;59.20;;;;;;5049696;28;20710;-37
2024/03/06 07:32:37;;;;;;;0.77;0.50;;;21.60;59.10;;;;;;5048867;28;20045;-36
2024/03/06 07:35:03;;;;;;;3.03;0.40;;;21.60;58.90;;;;;;5049382;28;20025;-35
2024/03/06 07:37:29;;;;;;;0.87;0.43;;;21.60;59.00;;;;;;5029628;28;20086;-35
2024/03/06 07:39:57;;;;;;;0.60;0.40;;;21.60;59.10;;;;;;5047839;28;20288;-35
2024/03/06 07:42:23;;;;;;;1.67;0.32;;;21.60;59.20;;;;;;5046772;28;20064;-35
2024/03/06 07:44:50;;;;;;;0.50;0.40;;;21.70;58.90;;;;;;5050796;28;20050;-35
2024/03/06 07:47:16;;;;;;;0.57;0.30;;;21.70;58.90;;;;;;5048432;28;20075;-36
2024/03/06 07:49:44;;;;;;;0.98;0.30;;;21.70;59.10;;;;;;5051562;28;20036;-35
2024/03/06 07:52:10;;;;;;;0.57;0.40;;;21.70;59.10;;;;;;5052417;28;20041;-35
2024/03/06 07:54:39;;;;;;;0.40;0.30;;;21.70;59.10;;;;;;5046738;28;20037;-35
2024/03/06 07:57:05;;;;;;;1.67;0.45;;;21.60;59.00;;;;;;5049921;28;20026;-35
2024/03/06 07:59:31;;;;;;;0.75;0.40;;;21.60;58.90;;;;;;5050061;28;20080;-35
2024/03/06 08:01:57;;;;;;;0.47;0.40;;;21.60;58.80;;;;;;5053358;28;20029;-35
2024/03/06 08:04:23;;;;;;;0.35;0.30;;;21.60;58.90;;;;;;5043354;28;20079;-36
2024/03/06 08:06:51;;;;;;;0.55;0.30;;;21.60;59.10;;;;;;5051577;28;20065;-35
2024/03/06 08:09:17;;;;;;;0.40;0.30;;;21.60;59.00;;;;;;5045583;28;20052;-36
2024/03/06 08:11:43;;;;;;;0.45;0.30;;;21.70;58.90;;;;;;5048819;28;20045;-35
2024/03/06 08:14:09;;;;;;;0.50;0.30;;;21.70;58.80;;;;;;5047730;28;20037;-36
2024/03/06 08:16:37;;;;;;;0.65;0.30;;;21.70;59.00;;;;;;5048414;28;20036;-36
2024/03/06 08:19:03;;;;;;;0.30;0.20;;;21.70;58.90;;;;;;5047875;28;20039;-36
2024/03/06 08:21:29;;;;;;;0.75;0.30;;;21.70;58.90;;;;;;5049607;28;20029;-35
2024/03/06 08:23:55;;;;;;;0.57;0.35;;;21.70;58.90;;;;;;5049138;28;20076;-36
2024/03/06 08:26:22;;;;;;;0.38;0.28;;;21.60;58.90;;;;;;5048349;28;20040;-36
2024/03/06 08:28:48;;;;;;;;;;;21.60;58.90;;;;;;5051729;28;20041;-36
2024/03/06 08:31:15;;;;;;;0.52;0.30;;;21.60;58.80;;;;;;5054212;28;19909;-37
2024/03/06 08:33:41;;;;;;;1.35;0.38;;;21.60;58.90;;;;;;5035289;28;20036;-36
2024/03/06 08:36:07;;;;;;;0.40;0.35;;;21.70;59.10;;;;;;5047401;28;20085;-36
2024/03/06 08:38:33;;;;;;;0.80;0.35;;;21.70;58.90;;;;;;5052376;28;20037;-36
2024/03/06 08:40:59;;;;;;;0.75;0.30;;;21.70;58.90;;;;;;5048385;28;20025;-36
2024/03/06 08:43:26;;;;;;;0.57;0.30;;;21.70;58.80;;;;;;5044034;28;20033;-36
2024/03/06 08:45:52;;;;;;;0.55;0.30;;;21.70;59.00;;;;;;5043467;28;20059;-36
2024/03/06 08:48:18;;;;;;;0.35;0.30;;;21.70;58.90;;;;;;5046779;28;20597;-35
2024/03/06 08:50:45;;;;;;;0.50;0.40;;;21.70;59.00;;;;;;5045797;28;20038;-35
2024/03/06 08:53:13;;;;;;;1.10;0.38;;;21.70;59.00;;;;;;5045211;28;20033;-35
2024/03/06 08:55:39;;;;;;;0.50;0.40;;;21.70;58.90;;;;;;5047359;28;20042;-35
2024/03/06 08:58:06;;;;;;;0.38;0.30;;;21.60;58.90;;;;;;5050021;28;20216;-36
2024/03/06 09:00:32;;;;;;;0.50;0.30;;;21.60;58.90;;;;;;5047677;28;20025;-36
2024/03/06 09:02:59;;;;;;;0.80;0.17;;;21.70;59.20;;;;;;5048511;28;20469;-35
2024/03/06 09:05:25;;;;;;;0.25;0.20;;;21.70;58.90;;;;;;5045772;28;20047;-35
2024/03/06 09:07:51;;;;;;;1.27;0.30;;;21.70;58.80;;;;;;5058547;28;20059;-35
2024/03/06 09:10:19;;;;;;;0.90;0.20;;;21.70;59.00;;;;;;5072014;28;21039;-35
2024/03/06 09:12:45;;;;;;;0.32;0.28;;;21.70;59.00;;;;;;5066885;28;20164;-39
2024/03/06 09:15:11;;;;;;;0.25;0.20;;;21.70;59.00;;;;;;5083960;28;20025;-36
2024/03/06 09:17:38;;;;;;;0.70;0.30;;;21.70;59.00;;;;;;5080064;28;20064;-35
2024/03/06 09:20:09;;;;;;;0.30;0.28;;;21.70;58.90;;;;;;5070823;28;20035;-35
2024/03/06 09:22:37;;;;;;;0.40;0.22;;;21.70;59.00;;;;;;5088992;28;20040;-35
2024/03/06 09:25:05;;;;;;;0.30;0.22;;;21.60;58.90;;;;;;5074461;28;20032;-35
2024/03/06 09:27:31;;;;;;;2.13;0.20;;;21.60;58.90;;;;;;5068025;28;20025;-34
2024/03/06 09:29:57;;;;;;;0.80;0.22;;;21.70;59.10;;;;;;5066760;28;20041;-35
2024/03/06 09:32:26;;;;;;;0.82;0.20;;;21.70;58.90;;;;;;5063000;28;20028;-36
2024/03/06 09:34:52;;;;;;;0.52;0.20;;;21.70;58.70;;;;;;5062876;28;20053;-37
2024/03/06 09:37:19;;;;;;;0.30;0.20;;;21.70;58.90;;;;;;5062487;28;20051;-35
2024/03/06 09:39:48;;;;;;;0.52;0.30;;;21.70;58.90;;;;;;5067309;28;20033;-36
2024/03/06 09:42:17;;;;;;;0.60;0.30;;;21.70;59.00;;;;;;5063500;28;20088;-36
2024/03/06 09:44:44;;;;;;;0.45;0.22;;;21.70;58.90;;;;;;5057852;28;20119;-36
2024/03/06 09:47:13;;;;;;;0.43;0.25;;;21.70;59.00;;;;;;5057847;28;20134;-36
2024/03/06 09:49:39;;;;;;;1.98;0.22;;;21.70;59.10;;;;;;5040382;28;20048;-36
2024/03/06 09:52:05;;;;;;;0.28;0.20;;;21.70;59.10;;;;;;5041014;28;20049;-36
2024/03/06 09:54:31;;;;;;;0.77;0.15;;;21.60;59.00;;;;;;5060978;28;20033;-35
2024/03/06 09:56:58;;;;;;;0.82;0.10;;;21.60;59.10;;;;;;5067771;28;20036;-36
2024/03/06 09:59:25;;;;;;;0.28;0.20;;;21.60;59.10;;;;;;5067152;28;20037;-36
2024/03/06 10:01:54;;;;;;;0.73;0.20;;;21.60;59.20;;;;;;5068572;28;20025;-36
2024/03/06 10:04:27;;;;;;;0.40;0.20;;;21.60;59.10;;;;;;5065022;28;20481;-36
2024/03/06 10:06:59;;;;;;;0.60;0.15;;;21.70;59.00;;;;;;5062768;28;20091;-36
2024/03/06 10:09:26;;;;;;;0.40;0.20;;;21.70;58.90;;;;;;5044025;28;20038;-36
2024/03/06 10:11:53;;;;;;;0.95;0.30;;;21.70;59.00;;;;;;5043155;28;20916;-36
2024/03/06 10:14:19;;;;;;;;;;;21.70;59.00;;;;;;5063166;28;20040;-36
2024/03/06 10:17:12;;;;;;;0.40;0.20;;;21.70;59.20;;;;;;5057453;28;19927;-36
2024/03/06 10:20:01;;;;;;;0.13;0.13;;;21.70;59.10;;;;;;5037574;28;20038;-36
2024/03/06 10:22:27;;;;;;;2.72;0.30;;;21.60;59.20;;;;;;5062811;28;20028;-36
2024/03/06 10:24:56;;;;;;;0.50;0.30;;;21.60;59.20;;;;;;5027980;28;20024;-36
2024/03/06 10:27:23;;;;;;;2.10;0.20;;;21.60;59.10;;;;;;5055266;28;20100;-36
2024/03/06 10:30:01;;;;;;;1.48;0.30;;;21.60;59.30;;;;;;5055481;28;20505;-36
2024/03/06 10:32:27;;;;;;;1.10;0.10;;;21.60;59.20;;;;;;5057506;28;20088;-36
2024/03/06 10:34:54;;;;;;;0.20;0.20;;;21.70;59.10;;;;;;5054238;28;20029;-35
2024/03/06 10:37:21;;;;;;;0.32;0.10;;;21.70;58.90;;;;;;5059850;28;20021;-38
2024/03/06 10:39:47;;;;;;;0.40;0.20;;;21.70;59.20;;;;;;5060418;28;20033;-36
2024/03/06 10:42:14;;;;;;;0.63;0.20;;;21.70;59.10;;;;;;5041733;28;20057;-40
2024/03/06 10:44:49;;;;;;;0.40;0.20;;;21.60;59.10;;;;;;5033589;28;20030;-38
2024/03/06 10:47:15;;;;;;;2.65;0.30;;;21.60;59.10;;;;;;5036874;28;20060;-35
2024/03/06 10:49:42;;;;;;;1.17;0.20;;;21.70;59.30;;;;;;5040144;28;20440;-36
2024/03/06 10:52:08;;;;;;;1.27;0.55;;;21.70;59.20;;;;;;5044813;28;20037;-37
2024/03/06 10:54:38;;;;;;;2.25;0.20;;;21.70;59.40;;;;;;5039387;28;20049;-38
2024/03/06 10:57:05;;;;;;;2.70;0.20;;;21.70;59.30;;;;;;5058676;28;20025;-38
2024/03/06 10:59:31;;;;;;;1.00;0.10;;;21.70;59.20;;;;;;5054197;28;20025;-38
2024/03/06 11:02:02;;;;;;;0.52;0.20;;;21.80;59.40;;;;;;5062398;28;20029;-37
2024/03/06 11:04:33;;;;;;;0.40;0.17;;;21.80;59.30;;;;;;5053846;28;20037;-42
2024/03/06 11:07:00;;;;;;;1.30;0.28;;;21.80;59.40;;;;;;5053128;28;20059;-38
2024/03/06 11:09:35;;;;;;;0.20;0.10;;;21.90;59.30;;;;;;5037617;28;20056;-37
2024/03/06 11:12:02;;;;;;;2.00;0.20;;;21.90;59.20;;;;;;5033868;28;20029;-35
2024/03/06 11:14:29;;;;;;;0.73;0.10;;;21.90;59.20;;;;;;5055511;28;20040;-35
2024/03/06 11:17:08;;;;;;;1.60;0.15;;;21.90;59.30;;;;;;5038806;28;20025;-36
2024/03/06 11:19:59;;;;;;;0.50;0.20;;;21.90;59.90;;;;;;5057081;28;20036;-41
2024/03/06 11:22:59;;;;;;;0.95;0.30;;;21.90;59.00;;;;;;5049686;28;20029;-36
2024/03/06 11:28:23;;;;;;;1.63;0.20;;;22.00;59.00;;;;;;5054963;28;20047;-36
2024/03/06 11:31:02;;;;;;;1.60;0.10;;;22.00;59.50;;;;;;5057310;28;20071;-36
2024/03/06 11:33:47;;;;;;;0.40;0.15;;;22.00;59.10;;;;;;5018562;28;20033;-36
2024/03/06 11:36:25;;;;;;;0.40;0.10;;;22.00;59.10;;;;;;5054333;28;20060;-36
2024/03/06 11:38:52;;;;;;;;;;;22.00;59.10;;;;;;5054673;28;20035;-36
2024/03/06 11:41:26;;;;;;;1.05;0.10;;;21.90;58.90;;;;;;5058623;28;19984;-36
2024/03/06 11:43:55;;;;;;;1.35;0.10;;;21.90;58.90;;;;;;5045082;28;20052;-36
2024/03/06 11:46:44;;;;;;;0.30;0.13;;;21.90;58.90;;;;;;5044366;28;20047;-36
2024/03/06 11:49:20;;;;;;;0.63;0.10;;;21.90;58.90;;;;;;5041830;28;20075;-35
2024/03/06 11:51:50;;;;;;;0.10;0.10;;;21.90;58.90;;;;;;5045564;28;20040;-36
2024/03/06 11:54:22;;;;;;;0.90;0.22;;;21.80;58.80;;;;;;5043557;28;20025;-36
2024/03/06 11:56:50;;;;;;;2.22;0.20;;;21.80;58.90;;;;;;5043917;28;20096;-36
2024/03/06 11:59:16;;;;;;;0.20;0.10;;;21.80;58.80;;;;;;5047147;28;20061;-36
2024/03/06 12:01:42;;;;;;;0.13;0.10;;;21.80;58.90;;;;;;5043059;28;20044;-36
2024/03/06 12:04:09;;;;;;;1.13;0.20;;;21.80;58.90;;;;;;5044791;28;20033;-36
2024/03/06 12:06:35;;;;;;;0.67;0.13;;;21.80;59.30;;;;;;5042747;28;20033;-36
2024/03/06 12:09:02;;;;;;;0.13;0.10;;;21.80;59.10;;;;;;5045871;28;20303;-36
2024/03/06 12:11:28;;;;;;;1.13;0.20;;;21.80;58.90;;;;;;5061365;28;20037;-36
2024/03/06 12:13:54;;;;;;;0.52;0.20;;;21.80;59.10;;;;;;5072025;28;20044;-36
2024/03/06 12:16:20;;;;;;;0.52;0.15;;;21.80;59.20;;;;;;5055851;28;20031;-36
2024/03/06 12:18:47;;;;;;;0.47;0.20;;;21.80;59.20;;;;;;5073739;28;20051;-36
2024/03/06 12:21:16;;;;;;;0.35;0.10;;;21.80;59.30;;;;;;5072439;28;20037;-36
2024/03/06 12:23:42;;;;;;;1.98;0.15;;;21.80;59.30;;;;;;5072889;28;20025;-36
2024/03/06 12:26:11;;;;;;;0.32;0.20;;;21.80;59.30;;;;;;5071801;28;20467;-36
2024/03/06 12:28:39;;;;;;;0.52;0.20;;;21.70;59.30;;;;;;5070591;28;20425;-36
2024/03/06 12:31:05;;;;;;;0.65;0.20;;;21.70;59.30;;;;;;5067003;28;20180;-36
2024/03/06 12:33:33;;;;;;;1.08;0.10;;;21.70;59.20;;;;;;5060172;28;20062;-36
2024/03/06 12:36:12;;;;;;;0.65;0.10;;;21.70;59.30;;;;;;5055585;28;20080;-37
2024/03/06 12:38:39;;;;;;;1.10;0.20;;;21.70;59.20;;;;;;5068156;28;20094;-36
2024/03/06 12:41:05;;;;;;;1.10;0.10;;;21.70;59.20;;;;;;5069196;28;20025;-36
2024/03/06 12:43:34;;;;;;;0.10;0.10;;;21.70;59.30;;;;;;5062694;28;20031;-36
2024/03/06 12:46:00;;;;;;;0.57;0.20;;;21.70;59.40;;;;;;5059547;28;20049;-36
2024/03/06 12:48:29;;;;;;;0.28;0.20;;;21.70;59.10;;;;;;5040892;28;20040;-36
2024/03/06 12:50:55;;;;;;;0.30;0.20;;;21.70;58.90;;;;;;5062390;28;20120;-36